Huntingdon Valley, PA

5:14 PM EST on December 05, 2016 (GMT -0500)
Beth Ayres/High Road | | Change Station

Elev 250 ft 40.12 °N, 75.05 °W | Updated 467 days ago

Partly Cloudy
Partly Cloudy
42 °F
Feels Like 40 °F
N
5
Wind Variable Wind from WNW
Gusts mph

Today
High -- | Low -- °F
--% Chance of Precip.
Yesterday
High -- | Low -- °F
Precip. -- in
Pressure 30.04 in
Visibility 10.0 miles
Clouds Clear
Windchill 40 °F
Dew Point 34 °F
Humidity 72%
Rainfall in
Snow Depth Not available.
7:07 AM 4:34 PM
Waxing Crescent, 35% visible
METAR KPNE 052154Z AUTO 36004KT 10SM CLR 07/01 A3004 RMK AO2 SLP172 T00670006 TSNO
Pressure 30.04 in
Visibility 10.0 miles
Clouds Clear
Windchill 40 °F
Dew Point 34 °F
Humidity 72%
Rainfall in
Snow Depth Not available.
7:07 AM 4:34 PM
Waxing Crescent, 35% visible
METAR KPNE 052154Z AUTO 36004KT 10SM CLR 07/01 A3004 RMK AO2 SLP172 T00670006 TSNO

10-Day Weather Forecast

Almanac

Astronomy

Dec. 05, 2016 Rise Set
Actual Time
Civil Twilight
Nautical Twilight
Astronomical Twilight
Moon
Length of Visible Light
Length of Day
Tomorrow will be .
, % of the Moon is Illuminated

Today's Extremes

State Highs State Lows

Community

WunderPhotos

Upload Photos

1,955,868 photos uploaded!

WunderBlog® & News

Nearby

Air Quality

  Air Quality AQ Index Pollutant
Not available.

Snow Depth

Station Depth Elevation

Earthquake Activity

City Distance Mag. Time & Date
Minimum magnitude displayed is 2.5.

Coastal Water Temperatures

Place Temperature

Stations

Nearby Weather Stations

Station Location Temp. Windchill Dew Point Humidity Wind Precip. Elev Updated Type
                   

Watches & Warnings

There are currently no watches in effect.